Time;durP1;ratioP1;P1;durP2;ratioP2;P2;SDS_P1;SDS_P2;PMS_P1;PMS_P2;Temp;Humidity;BMP_temperature;BMP_pressure;BME280_temperature;BME280_humidity;BME280_pressure;Samples;Min_cycle;Max_cycle;Signal;HPM_P1;HPM_P2
2021/06/30 00:01:25;;;;;;;28.07;25.30;;;27.40;99.90;;;;;;5137254;27;20203;-68
2021/06/30 00:03:51;;;;;;;27.87;25.33;;;27.40;99.90;;;;;;5136912;27;20537;-68
2021/06/30 00:06:18;;;;;;;26.03;23.53;;;27.50;99.90;;;;;;5137035;27;20194;-72
2021/06/30 00:08:45;;;;;;;25.73;23.43;;;27.50;99.90;;;;;;5118289;27;20174;-67
2021/06/30 00:11:11;;;;;;;27.93;24.90;;;27.40;99.90;;;;;;5136871;27;20431;-68
2021/06/30 00:13:36;;;;;;;26.63;24.17;;;27.40;99.90;;;;;;5136676;27;20512;-68
2021/06/30 00:16:02;;;;;;;28.40;25.37;;;27.30;99.90;;;;;;5136747;27;20940;-71
2021/06/30 00:18:28;;;;;;;29.80;23.70;;;27.30;99.90;;;;;;5136530;27;20186;-72
2021/06/30 00:20:54;;;;;;;25.80;23.53;;;27.20;99.90;;;;;;5136638;27;20191;-71
2021/06/30 00:23:20;;;;;;;26.80;24.20;;;27.20;99.90;;;;;;5136529;27;20420;-68
2021/06/30 00:25:45;;;;;;;26.20;23.57;;;27.20;99.90;;;;;;5136587;27;20221;-68
2021/06/30 00:28:12;;;;;;;26.40;23.67;;;27.20;99.90;;;;;;5117996;27;20274;-72
2021/06/30 00:30:38;;;;;;;25.40;22.60;;;27.20;99.90;;;;;;5117809;27;20447;-72
2021/06/30 00:33:04;;;;;;;27.53;24.73;;;27.20;99.90;;;;;;5136189;27;20495;-68
2021/06/30 00:35:30;;;;;;;24.23;21.90;;;27.20;99.90;;;;;;5136300;27;20446;-72
2021/06/30 00:37:56;;;;;;;26.47;23.97;;;27.20;99.90;;;;;;5136182;27;20208;-71
2021/06/30 00:40:22;;;;;;;30.73;24.87;;;27.10;99.90;;;;;;5136115;27;20435;-68
2021/06/30 00:42:47;;;;;;;24.97;22.60;;;27.20;99.90;;;;;;5136103;27;20700;-68
2021/06/30 00:45:17;;;;;;;24.87;22.43;;;27.20;99.90;;;;;;5117677;27;20187;-67
2021/06/30 00:47:43;;;;;;;29.03;22.50;;;27.20;99.90;;;;;;5136032;27;20636;-67
2021/06/30 00:50:09;;;;;;;25.17;22.43;;;27.10;99.90;;;;;;5135910;27;20438;-67
2021/06/30 00:52:34;;;;;;;25.77;23.10;;;27.00;99.90;;;;;;5135548;27;20238;-71
2021/06/30 00:55:00;;;;;;;23.27;21.00;;;27.00;99.90;;;;;;5117425;27;20919;-72
2021/06/30 00:57:27;;;;;;;24.43;21.57;;;27.00;99.90;;;;;;5117449;27;20167;-71
2021/06/30 00:59:54;;;;;;;23.17;20.87;;;27.00;99.90;;;;;;5135629;27;20178;-67
2021/06/30 01:02:20;;;;;;;22.80;20.73;;;27.00;99.90;;;;;;5135804;27;20485;-68
2021/06/30 01:04:46;;;;;;;22.77;20.33;;;27.00;99.90;;;;;;5135628;27;20419;-72
2021/06/30 01:07:11;;;;;;;22.93;20.80;;;27.00;99.90;;;;;;5117147;27;20190;-68
2021/06/30 01:09:37;;;;;;;20.50;18.70;;;27.00;99.90;;;;;;5135480;27;20175;-67
2021/06/30 01:12:03;;;;;;;21.87;19.83;;;27.00;99.90;;;;;;5116942;27;20217;-67
2021/06/30 01:14:31;;;;;;;21.50;19.60;;;27.00;99.90;;;;;;5117019;27;20186;-71
2021/06/30 01:16:58;;;;;;;24.80;20.67;;;27.00;99.90;;;;;;5117150;27;20608;-72
2021/06/30 01:19:26;;;;;;;26.80;21.57;;;26.90;99.90;;;;;;5116949;27;20923;-71
2021/06/30 01:21:54;;;;;;;23.53;19.53;;;27.00;99.90;;;;;;5135731;27;20443;-72
2021/06/30 01:24:20;;;;;;;22.87;20.47;;;27.00;99.90;;;;;;5135337;27;20403;-67
2021/06/30 01:26:48;;;;;;;21.13;19.07;;;27.00;99.90;;;;;;5135637;27;20439;-71
2021/06/30 01:29:15;;;;;;;22.53;20.33;;;27.00;99.90;;;;;;5135195;27;20403;-67
2021/06/30 01:31:40;;;;;;;26.00;21.60;;;27.00;99.90;;;;;;5135499;27;20459;-67
2021/06/30 01:34:06;;;;;;;30.93;23.73;;;27.00;99.90;;;;;;5135062;27;20421;-72
2021/06/30 01:36:50;;;;;;;24.70;22.10;;;27.00;99.90;;;;;;5116739;27;20199;-72
2021/06/30 01:39:20;;;;;;;22.47;20.07;;;27.00;99.90;;;;;;5135195;27;20842;-67
2021/06/30 01:41:46;;;;;;;24.30;21.77;;;26.90;99.90;;;;;;5135474;27;20434;-71
2021/06/30 01:44:12;;;;;;;23.50;21.20;;;26.90;99.90;;;;;;5116428;27;20416;-68
2021/06/30 01:46:38;;;;;;;24.00;21.50;;;26.80;99.90;;;;;;5135273;27;20446;-67
2021/06/30 01:49:05;;;;;;;23.03;20.63;;;26.80;99.90;;;;;;5134918;27;20171;-72
2021/06/30 01:51:30;;;;;;;25.27;22.70;;;26.70;99.90;;;;;;5116186;27;20490;-72
2021/06/30 01:53:57;;;;;;;25.17;22.70;;;26.70;99.90;;;;;;5134909;27;20402;-72
2021/06/30 01:56:24;;;;;;;25.93;22.43;;;26.60;99.90;;;;;;5135105;27;20207;-68
2021/06/30 01:59:00;;;;;;;26.13;23.53;;;26.60;99.90;;;;;;5134274;27;20404;-68
2021/06/30 02:01:26;;;;;;;24.43;22.03;;;26.60;99.90;;;;;;5134608;27;20438;-68
2021/06/30 02:03:54;;;;;;;28.07;23.20;;;26.60;99.90;;;;;;5116296;28;20457;-72
2021/06/30 02:06:19;;;;;;;26.23;22.70;;;26.50;99.90;;;;;;5116426;28;20301;-71
2021/06/30 02:08:45;;;;;;;25.00;22.47;;;26.50;99.90;;;;;;5134731;28;20512;-69
2021/06/30 02:11:11;;;;;;;27.47;22.93;;;26.50;99.90;;;;;;5116165;28;20258;-70
2021/06/30 02:13:36;;;;;;;25.43;22.50;;;26.50;99.90;;;;;;5134578;28;20653;-68
2021/06/30 02:16:02;;;;;;;25.90;23.23;;;26.40;99.90;;;;;;5134760;28;20238;-71
2021/06/30 02:18:27;;;;;;;25.93;23.40;;;26.40;99.90;;;;;;5134688;28;20537;-72
2021/06/30 02:20:53;;;;;;;25.53;22.77;;;26.40;99.90;;;;;;5134716;28;20211;-72
2021/06/30 02:23:19;;;;;;;24.70;22.20;;;26.30;99.90;;;;;;5134538;28;20171;-68
2021/06/30 02:25:44;;;;;;;26.20;23.43;;;26.40;99.90;;;;;;5115576;28;20203;-68
2021/06/30 02:28:10;;;;;;;27.13;22.83;;;26.30;99.90;;;;;;5134471;28;20171;-72
2021/06/30 02:30:36;;;;;;;26.27;23.87;;;26.30;99.90;;;;;;5116158;28;20283;-68
2021/06/30 02:33:01;;;;;;;24.30;21.90;;;26.30;99.90;;;;;;5134378;28;20242;-70
2021/06/30 02:35:29;;;;;;;25.83;23.30;;;26.30;99.90;;;;;;5134697;28;20198;-71
2021/06/30 02:37:56;;;;;;;24.57;21.83;;;26.20;99.90;;;;;;5134464;28;20297;-71
2021/06/30 02:40:23;;;;;;;25.53;23.00;;;26.20;99.90;;;;;;5115776;28;20476;-72
2021/06/30 02:42:51;;;;;;;24.23;22.07;;;26.20;99.90;;;;;;5134360;28;20407;-68
2021/06/30 02:45:18;;;;;;;25.17;22.77;;;26.10;99.90;;;;;;5134435;28;20442;-71
2021/06/30 02:47:45;;;;;;;26.03;23.43;;;26.10;99.90;;;;;;5134295;28;20434;-72
2021/06/30 02:50:13;;;;;;;26.00;23.40;;;26.10;99.90;;;;;;5134281;28;20442;-72
2021/06/30 02:52:39;;;;;;;32.80;23.40;;;26.10;99.90;;;;;;5134090;28;20910;-71
2021/06/30 02:55:06;;;;;;;25.27;22.50;;;26.10;99.90;;;;;;5134241;28;20442;-68
2021/06/30 02:57:31;;;;;;;25.83;23.20;;;26.10;99.90;;;;;;5115784;28;20513;-71
2021/06/30 02:59:57;;;;;;;26.67;23.27;;;26.10;99.90;;;;;;5134207;28;20451;-71
2021/06/30 03:02:23;;;;;;;25.53;22.70;;;26.00;99.90;;;;;;5134212;28;20250;-67
2021/06/30 03:04:48;;;;;;;25.57;23.00;;;26.00;99.90;;;;;;5134111;28;20186;-68
2021/06/30 03:07:14;;;;;;;25.10;22.50;;;26.00;99.90;;;;;;5115805;28;20502;-68
2021/06/30 03:09:40;;;;;;;25.30;22.90;;;26.00;99.90;;;;;;5134103;28;20170;-72
2021/06/30 03:12:06;;;;;;;24.53;21.90;;;26.00;99.90;;;;;;5136324;27;20209;-72
2021/06/30 03:14:31;;;;;;;24.20;21.87;;;26.00;99.90;;;;;;5137895;27;20174;-68
2021/06/30 03:16:57;;;;;;;27.40;24.50;;;26.00;99.90;;;;;;5119421;27;20611;-68
2021/06/30 03:19:23;;;;;;;26.27;23.47;;;26.00;99.90;;;;;;5137740;27;20198;-68
2021/06/30 03:21:48;;;;;;;25.87;23.10;;;26.00;99.90;;;;;;5138039;27;20202;-68
2021/06/30 03:24:14;;;;;;;29.50;22.83;;;25.90;99.90;;;;;;5137643;27;20166;-72
2021/06/30 03:26:40;;;;;;;26.37;23.73;;;25.90;99.90;;;;;;5138091;27;20682;-71
2021/06/30 03:29:06;;;;;;;25.90;23.23;;;25.90;99.90;;;;;;5119065;27;20411;-69
2021/06/30 03:31:32;;;;;;;26.50;23.03;;;25.90;99.90;;;;;;5137738;27;20199;-68
2021/06/30 03:33:58;;;;;;;24.67;22.37;;;25.90;99.90;;;;;;5137254;27;20174;-67
2021/06/30 03:36:24;;;;;;;23.53;20.67;;;25.90;99.90;;;;;;5137743;27;20443;-68
2021/06/30 03:38:50;;;;;;;22.43;20.20;;;25.80;99.90;;;;;;5118824;27;20977;-71
2021/06/30 03:41:15;;;;;;;22.10;19.97;;;25.80;99.90;;;;;;5118935;27;20263;-71
2021/06/30 03:43:41;;;;;;;21.63;18.93;;;25.80;99.90;;;;;;5137215;27;20175;-68
2021/06/30 03:46:10;;;;;;;20.90;18.47;;;25.80;99.90;;;;;;5137373;27;20585;-71
2021/06/30 03:48:36;;;;;;;21.87;19.70;;;25.80;99.90;;;;;;5137176;27;20556;-71
2021/06/30 03:51:02;;;;;;;26.37;23.63;;;25.80;99.90;;;;;;5118762;27;20468;-68
2021/06/30 03:53:28;;;;;;;20.33;16.20;;;25.80;99.90;;;;;;5118793;27;20293;-68
2021/06/30 03:55:53;;;;;;;20.03;18.00;;;25.90;99.90;;;;;;5137179;27;20902;-71
2021/06/30 03:58:19;;;;;;;21.70;16.73;;;25.90;99.90;;;;;;5136891;27;20171;-68
2021/06/30 04:00:44;;;;;;;27.03;16.07;;;25.90;99.90;;;;;;5137055;27;20205;-68
2021/06/30 04:03:10;;;;;;;19.17;16.30;;;25.90;99.90;;;;;;5136900;27;20170;-67
2021/06/30 04:05:36;;;;;;;17.27;15.47;;;25.90;99.90;;;;;;5136959;27;20208;-70
2021/06/30 04:08:01;;;;;;;19.03;16.33;;;26.00;99.90;;;;;;5136768;27;20172;-68
2021/06/30 04:10:27;;;;;;;18.40;15.90;;;26.00;99.90;;;;;;5136858;27;20199;-71
2021/06/30 04:12:53;;;;;;;18.00;15.90;;;26.10;99.90;;;;;;5136599;27;20285;-71
2021/06/30 04:15:18;;;;;;;18.47;16.40;;;26.10;99.90;;;;;;5118136;27;20303;-68
2021/06/30 04:17:45;;;;;;;17.53;15.17;;;26.10;99.90;;;;;;5127375;27;20172;-71
2021/06/30 04:20:11;;;;;;;54.40;20.60;;;26.10;99.90;;;;;;5123758;27;20211;-68
2021/06/30 04:22:37;;;;;;;24.63;17.43;;;26.10;99.90;;;;;;5115700;28;20392;-69
2021/06/30 04:25:04;;;;;;;17.00;15.30;;;26.20;99.90;;;;;;5131282;27;20510;-72
2021/06/30 04:27:31;;;;;;;17.90;16.03;;;26.20;99.90;;;;;;5115941;27;20415;-67
2021/06/30 04:29:57;;;;;;;27.63;18.63;;;26.20;99.90;;;;;;5136233;27;20438;-71
2021/06/30 04:32:23;;;;;;;20.10;17.70;;;26.20;99.90;;;;;;5135773;27;20451;-71
2021/06/30 04:34:48;;;;;;;21.73;19.17;;;26.20;99.90;;;;;;5134287;27;20986;-71
2021/06/30 04:37:14;;;;;;;20.27;17.57;;;26.20;99.90;;;;;;5136103;27;20167;-71
2021/06/30 04:39:39;;;;;;;57.67;22.43;;;26.20;99.90;;;;;;5135956;27;20178;-69
2021/06/30 04:42:05;;;;;;;23.10;19.17;;;26.20;99.90;;;;;;5135442;27;20693;-68
2021/06/30 04:44:31;;;;;;;21.57;18.77;;;26.20;99.90;;;;;;5117043;27;20549;-71
2021/06/30 04:46:56;;;;;;;18.67;16.87;;;26.20;99.90;;;;;;5133855;27;20252;-68
2021/06/30 04:49:22;;;;;;;20.07;18.07;;;26.20;99.90;;;;;;5132539;27;20202;-68
2021/06/30 04:51:47;;;;;;;18.60;15.73;;;26.30;99.90;;;;;;5133653;27;20230;-67
2021/06/30 04:54:14;;;;;;;23.50;16.97;;;26.30;99.90;;;;;;5133734;27;20201;-68
2021/06/30 04:56:39;;;;;;;47.97;22.00;;;26.30;99.90;;;;;;5133975;27;20203;-71
2021/06/30 04:59:06;;;;;;;57.20;18.20;;;26.30;99.90;;;;;;5132789;27;20406;-71
2021/06/30 05:01:32;;;;;;;17.93;15.20;;;26.30;99.90;;;;;;5113178;27;20668;-67
2021/06/30 05:03:58;;;;;;;16.37;14.67;;;26.40;99.90;;;;;;5131649;27;20450;-68
2021/06/30 05:06:23;;;;;;;19.60;14.50;;;26.40;99.90;;;;;;5131463;27;20752;-71
2021/06/30 05:08:49;;;;;;;16.07;13.80;;;26.40;99.90;;;;;;5132223;27;20175;-71
2021/06/30 05:11:15;;;;;;;17.30;13.23;;;26.40;99.90;;;;;;5113983;27;20765;-68
2021/06/30 05:13:40;;;;;;;14.97;12.70;;;26.40;99.90;;;;;;5132756;27;20218;-68
2021/06/30 05:16:06;;;;;;;18.17;11.20;;;26.50;99.90;;;;;;5134894;27;20218;-71
2021/06/30 05:18:32;;;;;;;13.10;11.87;;;26.50;99.90;;;;;;5133992;27;20167;-68
2021/06/30 05:20:58;;;;;;;15.03;11.50;;;26.50;99.90;;;;;;5133322;27;20194;-68
2021/06/30 05:23:23;;;;;;;13.67;12.10;;;26.50;99.90;;;;;;5132672;27;20399;-72
2021/06/30 05:25:50;;;;;;;13.60;12.30;;;26.50;99.90;;;;;;5131011;27;20484;-71
2021/06/30 05:28:15;;;;;;;13.00;11.70;;;26.50;99.90;;;;;;5132444;27;20207;-67
2021/06/30 05:30:41;;;;;;;13.50;11.10;;;26.50;99.90;;;;;;5128872;27;20451;-71
2021/06/30 05:33:06;;;;;;;13.63;11.87;;;26.60;99.90;;;;;;5130279;27;20567;-72
2021/06/30 05:35:32;;;;;;;13.87;12.57;;;26.60;99.90;;;;;;5127563;27;20690;-72
2021/06/30 05:37:58;;;;;;;13.10;11.90;;;26.60;99.90;;;;;;5130146;27;20275;-73
2021/06/30 05:40:23;;;;;;;13.10;11.93;;;26.60;99.90;;;;;;5131606;27;20209;-72
2021/06/30 05:42:49;;;;;;;17.37;13.70;;;26.70;99.90;;;;;;5131303;27;20242;-69
2021/06/30 05:45:16;;;;;;;18.77;16.83;;;26.70;99.90;;;;;;5130581;27;20203;-69
2021/06/30 05:47:45;;;;;;;15.13;13.10;;;26.70;99.90;;;;;;5129096;27;20199;-68
2021/06/30 05:50:13;;;;;;;13.60;11.00;;;26.80;99.90;;;;;;5119841;27;20807;-67
2021/06/30 05:52:39;;;;;;;12.73;11.50;;;26.80;99.90;;;;;;5128143;27;20478;-71
2021/06/30 05:55:08;;;;;;;11.33;10.23;;;26.80;99.90;;;;;;5130808;27;20528;-71
2021/06/30 05:57:34;;;;;;;12.17;10.70;;;26.90;99.90;;;;;;5132911;27;20403;-68
2021/06/30 06:00:00;;;;;;;17.77;10.40;;;26.90;99.90;;;;;;5105477;28;20458;-72
2021/06/30 06:02:25;;;;;;;10.47;9.27;;;27.00;99.90;;;;;;5124269;27;20564;-72
2021/06/30 06:04:51;;;;;;;11.90;9.50;;;27.00;99.90;;;;;;5110769;27;20179;-72
2021/06/30 06:07:17;;;;;;;11.30;8.93;;;27.00;99.90;;;;;;5112548;28;20652;-72
2021/06/30 06:09:42;;;;;;;8.70;7.80;;;27.10;99.90;;;;;;5130991;28;20175;-72
2021/06/30 06:12:08;;;;;;;11.33;9.30;;;27.10;99.90;;;;;;5112707;28;20218;-68
2021/06/30 06:14:34;;;;;;;11.70;8.03;;;27.10;99.90;;;;;;5113694;28;20709;-68
2021/06/30 06:16:59;;;;;;;10.43;7.80;;;27.20;99.90;;;;;;5130530;28;20240;-68
2021/06/30 06:19:26;;;;;;;11.20;7.80;;;27.30;99.90;;;;;;5133119;28;20184;-72
2021/06/30 06:21:52;;;;;;;11.70;8.30;;;27.30;99.90;;;;;;5132993;27;20203;-68
2021/06/30 06:24:18;;;;;;;12.00;8.00;;;27.30;99.90;;;;;;5114429;28;20821;-72
2021/06/30 06:26:44;;;;;;;16.97;10.30;;;27.30;99.90;;;;;;5130322;27;20819;-68
2021/06/30 06:29:10;;;;;;;11.13;8.40;;;27.40;99.90;;;;;;5110741;28;21029;-69
2021/06/30 06:31:36;;;;;;;13.33;8.93;;;27.50;99.90;;;;;;5130974;28;20500;-72
2021/06/30 06:34:02;;;;;;;15.83;10.00;;;27.50;99.90;;;;;;5128505;28;20476;-72
2021/06/30 06:36:28;;;;;;;11.50;9.03;;;27.60;99.90;;;;;;5129420;28;20451;-69
2021/06/30 06:38:53;;;;;;;9.43;8.00;;;27.60;99.90;;;;;;5128920;28;20185;-73
2021/06/30 06:41:19;;;;;;;10.63;9.10;;;27.60;99.90;;;;;;5112833;28;20206;-72
2021/06/30 06:43:46;;;;;;;10.27;8.87;;;27.70;99.90;;;;;;5131228;28;20183;-72
2021/06/30 06:46:11;;;;;;;10.90;8.97;;;27.80;99.90;;;;;;5113965;27;20709;-68
2021/06/30 06:48:37;;;;;;;11.63;8.43;;;27.80;99.90;;;;;;5137219;27;20417;-70
2021/06/30 06:51:03;;;;;;;13.50;8.83;;;27.90;99.90;;;;;;5138039;27;20203;-66
2021/06/30 06:53:29;;;;;;;12.90;8.67;;;27.90;99.90;;;;;;5136857;27;20660;-66
2021/06/30 06:55:57;;;;;;;11.60;9.20;;;28.00;99.90;;;;;;5136395;27;20485;-67
2021/06/30 06:58:23;;;;;;;9.60;8.70;;;28.10;99.90;;;;;;5134296;27;20181;-66
2021/06/30 07:00:49;;;;;;;12.20;9.67;;;28.20;99.90;;;;;;5135660;27;20493;-66
2021/06/30 07:03:14;;;;;;;11.67;8.60;;;28.20;99.90;;;;;;5111884;27;20275;-66
2021/06/30 07:05:40;;;;;;;10.80;9.07;;;28.30;99.90;;;;;;5131740;27;20200;-66
2021/06/30 07:08:06;;;;;;;15.73;8.90;;;28.40;99.90;;;;;;5102785;27;20260;-71
2021/06/30 07:10:32;;;;;;;8.70;7.90;;;28.40;99.90;;;;;;5108322;27;20207;-70
2021/06/30 07:12:58;;;;;;;13.57;8.63;;;28.40;99.90;;;;;;5109166;27;20469;-67
2021/06/30 07:15:23;;;;;;;7.47;6.73;;;28.50;99.90;;;;;;5128498;27;20203;-70
2021/06/30 07:17:49;;;;;;;9.07;7.53;;;28.60;99.90;;;;;;5129590;27;20835;-70
2021/06/30 07:20:15;;;;;;;7.60;6.90;;;28.70;99.90;;;;;;5130544;27;20210;-66
2021/06/30 07:22:40;;;;;;;12.23;8.10;;;28.80;99.90;;;;;;5130641;27;20209;-67
2021/06/30 07:25:06;;;;;;;12.43;8.57;;;28.80;99.90;;;;;;5130743;27;20193;-66
2021/06/30 07:27:32;;;;;;;12.90;7.67;;;28.90;99.90;;;;;;5130334;27;20182;-66
2021/06/30 07:29:57;;;;;;;12.83;7.70;;;29.00;99.90;;;;;;5113396;27;20224;-66
2021/06/30 07:32:23;;;;;;;12.20;6.63;;;29.00;99.90;;;;;;5132608;27;20241;-66
2021/06/30 07:34:48;;;;;;;16.93;7.50;;;29.10;99.90;;;;;;5114955;27;20682;-70
2021/06/30 07:37:14;;;;;;;12.27;7.37;;;29.20;99.90;;;;;;5113328;27;20228;-66
2021/06/30 07:39:40;;;;;;;9.17;6.80;;;29.20;99.90;;;;;;5131811;27;20184;-66
2021/06/30 07:42:06;;;;;;;14.20;6.47;;;29.30;99.90;;;;;;5133823;27;20284;-66
2021/06/30 07:44:31;;;;;;;11.83;6.27;;;29.30;99.90;;;;;;5115783;27;20193;-70
2021/06/30 07:46:57;;;;;;;10.73;6.57;;;29.40;99.90;;;;;;5117240;27;20352;-66
2021/06/30 07:49:23;;;;;;;13.97;6.37;;;29.50;99.90;;;;;;5133078;27;20232;-71
2021/06/30 07:51:50;;;;;;;8.37;6.70;;;29.60;99.90;;;;;;5135430;27;20236;-66
2021/06/30 07:54:16;;;;;;;19.53;7.17;;;29.70;99.90;;;;;;5136484;27;20174;-70
2021/06/30 07:56:42;;;;;;;9.50;5.73;;;29.80;99.90;;;;;;5134121;27;20468;-66
2021/06/30 07:59:10;;;;;;;12.00;6.10;;;29.90;99.90;;;;;;5132806;27;20416;-66
2021/06/30 08:01:36;;;;;;;10.30;7.00;;;29.90;99.90;;;;;;5133652;27;20204;-67
2021/06/30 08:04:03;;;;;;;10.47;6.13;;;30.00;99.90;;;;;;5132696;27;20453;-71
2021/06/30 08:06:29;;;;;;;9.73;5.63;;;30.10;99.90;;;;;;5134497;27;20581;-69
2021/06/30 08:08:55;;;;;;;8.70;6.17;;;30.20;99.90;;;;;;5116200;27;20435;-67
2021/06/30 08:11:23;;;;;;;7.87;6.37;;;30.30;99.90;;;;;;5134681;27;20279;-66
2021/06/30 08:13:53;;;;;;;9.00;5.30;;;30.40;99.90;;;;;;5134927;27;20216;-69
2021/06/30 08:16:21;;;;;;;6.57;5.10;;;30.50;99.90;;;;;;5135006;27;20467;-69
2021/06/30 08:18:47;;;;;;;9.23;5.40;;;30.60;99.90;;;;;;5125344;27;20775;-73
2021/06/30 08:21:14;;;;;;;8.87;5.30;;;30.60;99.90;;;;;;5132023;27;20465;-69
2021/06/30 08:23:40;;;;;;;7.63;5.60;;;30.70;99.90;;;;;;5117017;27;20412;-73
2021/06/30 08:26:08;;;;;;;10.23;4.87;;;30.80;99.90;;;;;;5127824;27;20558;-68
2021/06/30 08:28:35;;;;;;;14.07;5.27;;;30.90;99.90;;;;;;5103529;28;20181;-69
2021/06/30 08:31:01;;;;;;;6.47;5.53;;;31.00;99.90;;;;;;5113913;27;20466;-68
2021/06/30 08:33:27;;;;;;;6.27;5.67;;;31.10;99.90;;;;;;5132199;27;20512;-73
2021/06/30 08:35:54;;;;;;;10.13;5.30;;;31.20;99.90;;;;;;5131487;27;20462;-74
2021/06/30 08:38:20;;;;;;;6.10;4.70;;;31.30;99.90;;;;;;5133504;27;20553;-73
2021/06/30 08:40:45;;;;;;;7.63;4.83;;;31.30;99.90;;;;;;5130652;27;20454;-69
2021/06/30 08:43:11;;;;;;;6.63;4.80;;;31.40;99.90;;;;;;5132822;27;20179;-69
2021/06/30 08:45:37;;;;;;;6.57;4.83;;;31.40;98.90;;;;;;5133804;27;20246;-73
2021/06/30 08:48:04;;;;;;;7.40;5.40;;;31.50;99.20;;;;;;5109520;27;20175;-69
2021/06/30 08:50:30;;;;;;;7.80;6.60;;;31.60;99.50;;;;;;5130367;27;20611;-69
2021/06/30 08:52:57;;;;;;;6.70;5.30;;;31.70;99.30;;;;;;5130779;27;20493;-71
2021/06/30 08:55:24;;;;;;;7.97;4.77;;;31.80;98.70;;;;;;5132631;27;20438;-69
2021/06/30 08:57:49;;;;;;;9.33;5.40;;;31.90;98.50;;;;;;5112525;27;20463;-69
2021/06/30 09:00:17;;;;;;;6.13;4.80;;;32.00;98.10;;;;;;5129522;27;20475;-74
2021/06/30 09:02:43;;;;;;;9.13;4.57;;;32.00;98.60;;;;;;5114679;27;20244;-73
2021/06/30 09:07:50;;;;;;;8.73;4.17;;;32.10;97.30;;;;;;5126443;27;20438;-73
2021/06/30 09:10:28;;;;;;;6.63;3.93;;;32.20;97.80;;;;;;5124289;27;20469;-73
2021/06/30 09:12:54;;;;;;;10.63;4.30;;;32.20;98.10;;;;;;5130369;27;20487;-69
2021/06/30 09:15:25;;;;;;;6.73;3.90;;;32.30;97.40;;;;;;5097875;28;20935;-73
2021/06/30 09:17:51;;;;;;;5.67;3.67;;;32.30;96.30;;;;;;5123367;27;20178;-74
2021/06/30 09:20:17;;;;;;;6.00;3.73;;;32.50;95.80;;;;;;5131079;27;20455;-73
2021/06/30 09:22:51;;;;;;;7.17;4.20;;;32.60;94.30;;;;;;5113567;27;20727;-69
2021/06/30 09:25:30;;;;;;;6.73;3.97;;;32.70;95.20;;;;;;5111137;27;20492;-69
2021/06/30 09:27:56;;;;;;;7.20;3.50;;;32.70;94.20;;;;;;5118766;27;20446;-69
2021/06/30 09:30:23;;;;;;;6.53;3.60;;;32.80;93.00;;;;;;5126801;27;20459;-74
2021/06/30 09:32:57;;;;;;;11.00;4.63;;;32.90;92.90;;;;;;5120908;27;20896;-69
2021/06/30 09:35:32;;;;;;;9.60;4.50;;;32.90;94.40;;;;;;5131959;27;20461;-74
2021/06/30 09:38:00;;;;;;;10.60;4.60;;;32.90;95.10;;;;;;5109165;27;20434;-73
2021/06/30 09:40:43;;;;;;;6.40;3.33;;;32.80;94.80;;;;;;5123110;27;20971;-74
2021/06/30 09:43:27;;;;;;;7.17;3.77;;;32.90;93.10;;;;;;5127450;27;20858;-69
2021/06/30 09:45:55;;;;;;;7.93;3.60;;;33.00;90.10;;;;;;5128720;27;20450;-74
2021/06/30 09:48:38;;;;;;;13.80;3.43;;;33.10;92.10;;;;;;5131162;27;20862;-70
2021/06/30 09:51:05;;;;;;;8.20;3.80;;;33.10;90.70;;;;;;5124999;27;20470;-73
2021/06/30 09:53:41;;;;;;;5.43;3.40;;;33.20;90.20;;;;;;5128023;27;20613;-73
2021/06/30 09:56:35;;;;;;;9.70;4.27;;;33.30;90.50;;;;;;5126685;27;20455;-69
2021/06/30 09:59:09;;;;;;;8.03;3.77;;;33.30;92.60;;;;;;5123851;27;20410;-74
2021/06/30 10:01:36;;;;;;;11.47;3.30;;;33.30;89.80;;;;;;5110453;28;20590;-69
2021/06/30 10:04:02;;;;;;;8.57;4.00;;;33.40;90.20;;;;;;5130845;27;20523;-69
2021/06/30 10:06:33;;;;;;;7.53;3.67;;;33.40;90.30;;;;;;5126778;27;20858;-69
2021/06/30 10:09:00;;;;;;;6.30;3.30;;;33.40;91.80;;;;;;5111599;28;20771;-73
2021/06/30 10:11:28;;;;;;;8.63;4.40;;;33.40;88.90;;;;;;5123886;27;20447;-69
2021/06/30 10:13:54;;;;;;;5.27;3.70;;;33.40;90.90;;;;;;5126804;28;20502;-70
2021/06/30 10:16:21;;;;;;;12.63;4.30;;;33.40;91.20;;;;;;5106865;28;20466;-74
2021/06/30 10:18:53;;;;;;;11.97;3.83;;;33.40;90.60;;;;;;5107531;28;20436;-74
2021/06/30 10:21:22;;;;;;;9.33;4.13;;;33.50;90.00;;;;;;5112313;27;20454;-69
2021/06/30 10:23:49;;;;;;;8.77;4.50;;;33.60;90.00;;;;;;5134702;27;20958;-69
2021/06/30 10:26:16;;;;;;;7.23;3.23;;;33.60;90.80;;;;;;5138267;27;20471;-74
2021/06/30 10:28:43;;;;;;;10.30;3.50;;;33.60;90.80;;;;;;5135456;27;20426;-69
2021/06/30 10:31:09;;;;;;;8.23;3.87;;;33.70;88.10;;;;;;5107908;27;20594;-73
2021/06/30 10:33:40;;;;;;;7.73;3.70;;;33.70;90.90;;;;;;5132075;27;20462;-74
2021/06/30 10:36:10;;;;;;;8.27;3.73;;;33.70;87.90;;;;;;5132469;27;20489;-70
2021/06/30 10:38:55;;;;;;;6.00;3.93;;;33.70;87.70;;;;;;5133669;27;20415;-70
2021/06/30 10:41:36;;;;;;;13.60;3.97;;;33.80;85.80;;;;;;5108141;27;20553;-69
2021/06/30 10:44:23;;;;;;;5.80;3.70;;;33.90;86.40;;;;;;5129165;27;20446;-74
2021/06/30 10:46:49;;;;;;;9.03;4.37;;;33.80;88.40;;;;;;5128356;27;20458;-73
2021/06/30 10:49:16;;;;;;;13.57;5.70;;;33.80;89.10;;;;;;5114334;27;20422;-69
2021/06/30 10:51:46;;;;;;;8.53;4.57;;;33.90;84.00;;;;;;5113254;27;20457;-74
2021/06/30 10:54:35;;;;;;;11.73;4.70;;;33.90;83.90;;;;;;5134961;27;20458;-74
2021/06/30 10:57:21;;;;;;;12.40;4.50;;;34.10;84.30;;;;;;5115974;27;20457;-69
2021/06/30 11:00:02;;;;;;;11.40;3.60;;;34.10;82.60;;;;;;5117102;27;20820;-69
2021/06/30 11:02:33;;;;;;;13.77;4.50;;;34.20;81.20;;;;;;5117534;27;20453;-69
2021/06/30 11:05:14;;;;;;;8.17;4.23;;;34.20;82.60;;;;;;5132304;27;20434;-69
2021/06/30 11:07:44;;;;;;;11.37;4.20;;;34.30;81.20;;;;;;5114076;27;21125;-70
2021/06/30 11:10:16;;;;;;;9.97;3.40;;;34.30;81.10;;;;;;5117733;27;20442;-74
2021/06/30 11:12:52;;;;;;;7.00;3.37;;;34.30;81.60;;;;;;5136590;27;20879;-74
2021/06/30 11:15:41;;;;;;;18.93;4.20;;;34.30;80.70;;;;;;5118793;27;20887;-69
2021/06/30 11:18:12;;;;;;;12.43;4.63;;;34.40;80.80;;;;;;5123132;27;20427;-73
2021/06/30 11:20:48;;;;;;;10.33;3.97;;;34.40;81.00;;;;;;5134285;27;20453;-69
2021/06/30 11:23:21;;;;;;;9.57;4.07;;;34.50;79.70;;;;;;5134854;27;20469;-69
2021/06/30 11:25:48;;;;;;;12.67;3.70;;;34.50;79.60;;;;;;5132997;27;20481;-66
2021/06/30 11:28:35;;;;;;;9.43;3.77;;;34.50;80.70;;;;;;5135303;27;20438;-67
2021/06/30 11:31:27;;;;;;;13.30;4.10;;;34.60;80.50;;;;;;5115968;27;20713;-67
2021/06/30 11:34:07;;;;;;;10.43;4.17;;;34.60;80.00;;;;;;5115934;27;20462;-75
2021/06/30 11:36:40;;;;;;;11.80;3.70;;;34.70;80.00;;;;;;5134442;27;20808;-68
2021/06/30 11:39:08;;;;;;;9.80;4.50;;;34.70;78.40;;;;;;5129291;27;20499;-72
2021/06/30 11:41:47;;;;;;;13.70;4.20;;;34.70;81.30;;;;;;5128997;27;20490;-73
2021/06/30 11:44:14;;;;;;;8.40;3.90;;;34.70;79.60;;;;;;5102950;28;20435;-69
2021/06/30 11:46:42;;;;;;;10.87;4.20;;;34.70;78.30;;;;;;5105104;27;20483;-72
2021/06/30 11:49:10;;;;;;;14.27;4.20;;;34.60;78.50;;;;;;5135998;27;20419;-68
2021/06/30 11:51:36;;;;;;;9.93;3.87;;;34.60;78.40;;;;;;5130273;27;21054;-68
2021/06/30 11:54:02;;;;;;;11.20;3.80;;;34.60;78.20;;;;;;5134191;27;20488;-69
2021/06/30 11:56:30;;;;;;;10.33;3.63;;;34.60;79.20;;;;;;5110157;27;20350;-69
2021/06/30 11:58:57;;;;;;;9.60;4.10;;;34.60;79.30;;;;;;5134038;27;20423;-69
2021/06/30 12:01:25;;;;;;;12.03;4.97;;;34.70;79.80;;;;;;5132382;27;20467;-73
2021/06/30 12:04:22;;;;;;;9.27;4.83;;;34.80;76.90;;;;;;5134290;27;20466;-73
2021/06/30 12:06:53;;;;;;;10.90;4.60;;;34.80;76.60;;;;;;5131042;27;20455;-69
2021/06/30 12:09:21;;;;;;;11.50;4.63;;;34.80;76.60;;;;;;5133961;27;20418;-68
2021/06/30 12:11:52;;;;;;;10.23;3.90;;;34.80;78.70;;;;;;5130759;27;20490;-69
2021/06/30 12:14:23;;;;;;;6.60;3.97;;;34.90;77.00;;;;;;5130003;27;20467;-73
2021/06/30 12:16:57;;;;;;;15.63;4.30;;;34.90;77.60;;;;;;5129787;27;20538;-68
2021/06/30 12:19:46;;;;;;;10.17;4.40;;;34.90;77.40;;;;;;5111804;27;20438;-69
2021/06/30 12:22:19;;;;;;;8.93;3.80;;;34.90;77.10;;;;;;5103592;27;20442;-68
2021/06/30 12:24:50;;;;;;;12.00;4.37;;;34.90;76.70;;;;;;5123203;27;20437;-69
2021/06/30 12:27:15;;;;;;;15.83;4.77;;;34.80;77.90;;;;;;5130210;27;20746;-68
2021/06/30 12:29:42;;;;;;;12.13;4.93;;;34.70;76.50;;;;;;5110501;27;20854;-73
2021/06/30 12:32:13;;;;;;;12.93;4.47;;;34.70;77.10;;;;;;5113676;27;20207;-69
2021/06/30 12:34:43;;;;;;;11.97;4.40;;;34.70;78.60;;;;;;5126615;27;20808;-74
2021/06/30 12:37:18;;;;;;;13.23;4.73;;;34.70;78.00;;;;;;5128881;27;20920;-69
2021/06/30 12:39:54;;;;;;;9.57;4.47;;;34.80;77.70;;;;;;5123438;27;20509;-68
2021/06/30 12:42:20;;;;;;;9.97;4.30;;;34.80;77.60;;;;;;5123588;27;20478;-73